sensor_id;sensor_type;location;lat;lon;timestamp;P1;durP1;ratioP1;P2;durP2;ratioP2
36371;SDS011;22398;51.346;12.372;2023-05-07T00:04:31;9.93;;;5.93;;
36371;SDS011;22398;51.346;12.372;2023-05-07T00:09:38;14.48;;;6.88;;
36371;SDS011;22398;51.346;12.372;2023-05-07T00:14:42;14.75;;;7.30;;
36371;SDS011;22398;51.346;12.372;2023-05-07T00:19:48;8.50;;;5.60;;
36371;SDS011;22398;51.346;12.372;2023-05-07T00:24:52;10.70;;;6.60;;
36371;SDS011;22398;51.346;12.372;2023-05-07T00:29:56;10.57;;;6.53;;
36371;SDS011;22398;51.346;12.372;2023-05-07T00:35:00;12.50;;;6.97;;
36371;SDS011;22398;51.346;12.372;2023-05-07T00:40:04;11.23;;;6.80;;
36371;SDS011;22398;51.346;12.372;2023-05-07T00:45:10;11.95;;;7.05;;
36371;SDS011;22398;51.346;12.372;2023-05-07T00:50:15;12.02;;;7.15;;
36371;SDS011;22398;51.346;12.372;2023-05-07T00:55:21;14.07;;;7.95;;
36371;SDS011;22398;51.346;12.372;2023-05-07T01:00:25;11.43;;;7.27;;
36371;SDS011;22398;51.346;12.372;2023-05-07T01:05:31;13.25;;;7.68;;
36371;SDS011;22398;51.346;12.372;2023-05-07T01:10:35;12.20;;;7.82;;
36371;SDS011;22398;51.346;12.372;2023-05-07T01:15:39;15.07;;;8.07;;
36371;SDS011;22398;51.346;12.372;2023-05-07T01:20:44;15.32;;;8.70;;
36371;SDS011;22398;51.346;12.372;2023-05-07T01:25:53;16.17;;;8.38;;
36371;SDS011;22398;51.346;12.372;2023-05-07T01:31:01;13.77;;;9.00;;
36371;SDS011;22398;51.346;12.372;2023-05-07T01:36:08;17.33;;;9.25;;
36371;SDS011;22398;51.346;12.372;2023-05-07T01:46:19;15.90;;;9.10;;
36371;SDS011;22398;51.346;12.372;2023-05-07T01:51:23;18.25;;;10.13;;
36371;SDS011;22398;51.346;12.372;2023-05-07T01:56:28;19.10;;;10.80;;
36371;SDS011;22398;51.346;12.372;2023-05-07T02:01:31;22.85;;;10.63;;
36371;SDS011;22398;51.346;12.372;2023-05-07T02:06:35;17.35;;;10.90;;
36371;SDS011;22398;51.346;12.372;2023-05-07T02:11:42;15.15;;;10.73;;
36371;SDS011;22398;51.346;12.372;2023-05-07T02:16:47;19.20;;;11.18;;
36371;SDS011;22398;51.346;12.372;2023-05-07T02:21:51;20.02;;;11.40;;
36371;SDS011;22398;51.346;12.372;2023-05-07T02:26:56;17.15;;;11.00;;
36371;SDS011;22398;51.346;12.372;2023-05-07T02:32:00;18.48;;;10.98;;
36371;SDS011;22398;51.346;12.372;2023-05-07T02:37:04;18.58;;;11.40;;
36371;SDS011;22398;51.346;12.372;2023-05-07T02:42:09;19.58;;;10.63;;
36371;SDS011;22398;51.346;12.372;2023-05-07T02:47:13;17.77;;;10.57;;
36371;SDS011;22398;51.346;12.372;2023-05-07T02:52:19;16.50;;;10.45;;
36371;SDS011;22398;51.346;12.372;2023-05-07T02:57:24;19.02;;;11.05;;
36371;SDS011;22398;51.346;12.372;2023-05-07T03:02:28;19.10;;;10.25;;
36371;SDS011;22398;51.346;12.372;2023-05-07T03:07:32;15.13;;;10.30;;
36371;SDS011;22398;51.346;12.372;2023-05-07T03:12:37;17.58;;;10.30;;
36371;SDS011;22398;51.346;12.372;2023-05-07T03:17:42;17.83;;;11.10;;
36371;SDS011;22398;51.346;12.372;2023-05-07T03:22:46;15.75;;;9.73;;
36371;SDS011;22398;51.346;12.372;2023-05-07T03:27:51;17.38;;;10.80;;
36371;SDS011;22398;51.346;12.372;2023-05-07T03:32:58;18.05;;;10.27;;
36371;SDS011;22398;51.346;12.372;2023-05-07T03:38:02;16.27;;;10.10;;
36371;SDS011;22398;51.346;12.372;2023-05-07T03:43:10;22.95;;;11.20;;
36371;SDS011;22398;51.346;12.372;2023-05-07T03:48:19;15.57;;;10.82;;
36371;SDS011;22398;51.346;12.372;2023-05-07T03:53:25;16.73;;;10.57;;
36371;SDS011;22398;51.346;12.372;2023-05-07T03:58:30;20.13;;;10.65;;
36371;SDS011;22398;51.346;12.372;2023-05-07T04:03:39;17.40;;;10.25;;
36371;SDS011;22398;51.346;12.372;2023-05-07T04:08:42;16.88;;;10.35;;
36371;SDS011;22398;51.346;12.372;2023-05-07T04:13:49;20.07;;;10.27;;
36371;SDS011;22398;51.346;12.372;2023-05-07T04:18:55;17.88;;;11.18;;
36371;SDS011;22398;51.346;12.372;2023-05-07T04:23:58;19.23;;;11.13;;
36371;SDS011;22398;51.346;12.372;2023-05-07T04:29:04;20.17;;;10.93;;
36371;SDS011;22398;51.346;12.372;2023-05-07T04:34:08;19.00;;;10.85;;
36371;SDS011;22398;51.346;12.372;2023-05-07T04:39:12;19.02;;;10.20;;
36371;SDS011;22398;51.346;12.372;2023-05-07T04:44:21;16.38;;;10.23;;
36371;SDS011;22398;51.346;12.372;2023-05-07T04:49:24;22.42;;;10.57;;
36371;SDS011;22398;51.346;12.372;2023-05-07T04:54:30;17.08;;;9.65;;
36371;SDS011;22398;51.346;12.372;2023-05-07T04:59:35;21.45;;;10.25;;
36371;SDS011;22398;51.346;12.372;2023-05-07T05:04:39;18.45;;;10.27;;
36371;SDS011;22398;51.346;12.372;2023-05-07T05:09:43;19.25;;;9.80;;
36371;SDS011;22398;51.346;12.372;2023-05-07T05:14:48;14.25;;;8.70;;
36371;SDS011;22398;51.346;12.372;2023-05-07T05:19:53;15.10;;;8.50;;
36371;SDS011;22398;51.346;12.372;2023-05-07T05:24:58;15.13;;;8.75;;
36371;SDS011;22398;51.346;12.372;2023-05-07T05:30:04;12.90;;;8.23;;
36371;SDS011;22398;51.346;12.372;2023-05-07T05:35:10;11.38;;;7.95;;
36371;SDS011;22398;51.346;12.372;2023-05-07T05:40:15;12.90;;;7.40;;
36371;SDS011;22398;51.346;12.372;2023-05-07T05:45:21;11.70;;;7.00;;
36371;SDS011;22398;51.346;12.372;2023-05-07T05:50:25;12.55;;;7.57;;
36371;SDS011;22398;51.346;12.372;2023-05-07T05:55:29;11.10;;;6.47;;
36371;SDS011;22398;51.346;12.372;2023-05-07T06:00:35;10.63;;;6.60;;
36371;SDS011;22398;51.346;12.372;2023-05-07T06:05:40;12.32;;;7.43;;
36371;SDS011;22398;51.346;12.372;2023-05-07T06:10:44;10.73;;;6.93;;
36371;SDS011;22398;51.346;12.372;2023-05-07T06:15:51;12.73;;;7.17;;
36371;SDS011;22398;51.346;12.372;2023-05-07T06:20:54;10.88;;;7.35;;
36371;SDS011;22398;51.346;12.372;2023-05-07T06:26:02;17.48;;;7.93;;
36371;SDS011;22398;51.346;12.372;2023-05-07T06:31:14;11.95;;;7.78;;
36371;SDS011;22398;51.346;12.372;2023-05-07T06:36:25;13.48;;;7.47;;
36371;SDS011;22398;51.346;12.372;2023-05-07T06:41:32;12.57;;;7.47;;
36371;SDS011;22398;51.346;12.372;2023-05-07T06:46:43;14.00;;;8.10;;
36371;SDS011;22398;51.346;12.372;2023-05-07T06:56:52;12.65;;;7.63;;
36371;SDS011;22398;51.346;12.372;2023-05-07T07:02:00;11.98;;;7.10;;
36371;SDS011;22398;51.346;12.372;2023-05-07T07:07:03;12.25;;;7.15;;
36371;SDS011;22398;51.346;12.372;2023-05-07T07:12:07;12.13;;;7.28;;
36371;SDS011;22398;51.346;12.372;2023-05-07T07:17:15;12.68;;;6.22;;
36371;SDS011;22398;51.346;12.372;2023-05-07T07:22:19;12.52;;;6.47;;
36371;SDS011;22398;51.346;12.372;2023-05-07T07:27:22;11.25;;;6.55;;
36371;SDS011;22398;51.346;12.372;2023-05-07T07:32:27;10.23;;;6.15;;
36371;SDS011;22398;51.346;12.372;2023-05-07T07:37:31;6.25;;;4.85;;
36371;SDS011;22398;51.346;12.372;2023-05-07T07:42:35;9.90;;;5.47;;
36371;SDS011;22398;51.346;12.372;2023-05-07T07:47:40;7.32;;;4.85;;
36371;SDS011;22398;51.346;12.372;2023-05-07T07:52:44;6.80;;;5.13;;
36371;SDS011;22398;51.346;12.372;2023-05-07T07:57:50;8.63;;;4.78;;
36371;SDS011;22398;51.346;12.372;2023-05-07T08:02:55;6.95;;;4.70;;
36371;SDS011;22398;51.346;12.372;2023-05-07T08:08:05;8.63;;;4.32;;
36371;SDS011;22398;51.346;12.372;2023-05-07T08:13:10;5.78;;;3.95;;
36371;SDS011;22398;51.346;12.372;2023-05-07T08:18:17;5.75;;;4.28;;
36371;SDS011;22398;51.346;12.372;2023-05-07T08:23:21;5.70;;;4.03;;
36371;SDS011;22398;51.346;12.372;2023-05-07T08:28:25;5.60;;;4.15;;
36371;SDS011;22398;51.346;12.372;2023-05-07T08:33:30;7.32;;;4.38;;
36371;SDS011;22398;51.346;12.372;2023-05-07T08:38:34;8.07;;;4.10;;
36371;SDS011;22398;51.346;12.372;2023-05-07T08:43:37;8.15;;;4.35;;
36371;SDS011;22398;51.346;12.372;2023-05-07T08:48:46;6.53;;;3.85;;
36371;SDS011;22398;51.346;12.372;2023-05-07T08:53:51;7.18;;;4.57;;
36371;SDS011;22398;51.346;12.372;2023-05-07T08:59:03;6.70;;;4.53;;
36371;SDS011;22398;51.346;12.372;2023-05-07T09:04:08;6.20;;;4.53;;
36371;SDS011;22398;51.346;12.372;2023-05-07T09:09:14;7.38;;;4.70;;
36371;SDS011;22398;51.346;12.372;2023-05-07T09:14:21;6.35;;;4.43;;
36371;SDS011;22398;51.346;12.372;2023-05-07T09:19:27;6.93;;;4.40;;
36371;SDS011;22398;51.346;12.372;2023-05-07T09:24:34;7.20;;;4.60;;
36371;SDS011;22398;51.346;12.372;2023-05-07T09:29:43;6.35;;;4.45;;
36371;SDS011;22398;51.346;12.372;2023-05-07T09:34:50;7.30;;;4.63;;
36371;SDS011;22398;51.346;12.372;2023-05-07T09:39:57;9.15;;;4.78;;
36371;SDS011;22398;51.346;12.372;2023-05-07T09:45:05;7.75;;;5.13;;
36371;SDS011;22398;51.346;12.372;2023-05-07T09:50:13;7.55;;;4.28;;
36371;SDS011;22398;51.346;12.372;2023-05-07T09:55:19;7.43;;;4.55;;
36371;SDS011;22398;51.346;12.372;2023-05-07T10:00:24;7.28;;;4.70;;
36371;SDS011;22398;51.346;12.372;2023-05-07T10:05:40;10.10;;;4.73;;
36371;SDS011;22398;51.346;12.372;2023-05-07T10:10:47;7.10;;;4.57;;
36371;SDS011;22398;51.346;12.372;2023-05-07T10:15:57;8.60;;;4.30;;
36371;SDS011;22398;51.346;12.372;2023-05-07T10:21:08;6.78;;;4.07;;
36371;SDS011;22398;51.346;12.372;2023-05-07T10:26:14;7.40;;;4.05;;
36371;SDS011;22398;51.346;12.372;2023-05-07T10:31:25;5.57;;;3.42;;
36371;SDS011;22398;51.346;12.372;2023-05-07T10:36:43;5.97;;;3.70;;
36371;SDS011;22398;51.346;12.372;2023-05-07T10:41:48;4.60;;;3.40;;
36371;SDS011;22398;51.346;12.372;2023-05-07T10:47:03;5.28;;;3.38;;
36371;SDS011;22398;51.346;12.372;2023-05-07T10:52:17;5.85;;;3.47;;
36371;SDS011;22398;51.346;12.372;2023-05-07T10:57:35;5.68;;;3.95;;
36371;SDS011;22398;51.346;12.372;2023-05-07T11:08:17;8.65;;;5.38;;
36371;SDS011;22398;51.346;12.372;2023-05-07T11:13:43;7.60;;;4.85;;
36371;SDS011;22398;51.346;12.372;2023-05-07T11:19:04;6.57;;;4.82;;
36371;SDS011;22398;51.346;12.372;2023-05-07T11:24:15;8.20;;;4.65;;
36371;SDS011;22398;51.346;12.372;2023-05-07T11:29:25;6.65;;;4.72;;
36371;SDS011;22398;51.346;12.372;2023-05-07T11:34:37;6.43;;;4.60;;
36371;SDS011;22398;51.346;12.372;2023-05-07T11:39:42;7.50;;;4.50;;
36371;SDS011;22398;51.346;12.372;2023-05-07T11:44:46;7.10;;;3.85;;
36371;SDS011;22398;51.346;12.372;2023-05-07T11:49:51;7.80;;;5.00;;
36371;SDS011;22398;51.346;12.372;2023-05-07T11:54:58;6.25;;;4.40;;
36371;SDS011;22398;51.346;12.372;2023-05-07T12:00:03;8.65;;;5.03;;
36371;SDS011;22398;51.346;12.372;2023-05-07T12:05:13;8.63;;;4.35;;
36371;SDS011;22398;51.346;12.372;2023-05-07T12:10:18;5.80;;;4.35;;
36371;SDS011;22398;51.346;12.372;2023-05-07T12:15:23;6.88;;;4.95;;
36371;SDS011;22398;51.346;12.372;2023-05-07T12:20:26;7.78;;;4.63;;
36371;SDS011;22398;51.346;12.372;2023-05-07T12:25:32;9.18;;;4.28;;
36371;SDS011;22398;51.346;12.372;2023-05-07T12:30:37;6.20;;;3.90;;
36371;SDS011;22398;51.346;12.372;2023-05-07T12:35:42;8.18;;;4.97;;
36371;SDS011;22398;51.346;12.372;2023-05-07T12:40:47;7.80;;;4.63;;
36371;SDS011;22398;51.346;12.372;2023-05-07T12:45:54;8.45;;;4.18;;
36371;SDS011;22398;51.346;12.372;2023-05-07T12:50:59;7.95;;;5.38;;
36371;SDS011;22398;51.346;12.372;2023-05-07T12:56:05;5.70;;;4.03;;
36371;SDS011;22398;51.346;12.372;2023-05-07T13:01:09;5.43;;;3.72;;
36371;SDS011;22398;51.346;12.372;2023-05-07T13:06:17;8.73;;;4.97;;
36371;SDS011;22398;51.346;12.372;2023-05-07T13:11:22;6.38;;;3.97;;
36371;SDS011;22398;51.346;12.372;2023-05-07T13:16:25;5.32;;;3.92;;
36371;SDS011;22398;51.346;12.372;2023-05-07T13:21:29;5.93;;;4.20;;
36371;SDS011;22398;51.346;12.372;2023-05-07T13:26:34;5.53;;;3.65;;
36371;SDS011;22398;51.346;12.372;2023-05-07T13:31:38;8.10;;;3.78;;
36371;SDS011;22398;51.346;12.372;2023-05-07T13:36:44;5.65;;;3.38;;
36371;SDS011;22398;51.346;12.372;2023-05-07T13:41:49;4.10;;;2.92;;
36371;SDS011;22398;51.346;12.372;2023-05-07T13:46:53;3.70;;;3.00;;
36371;SDS011;22398;51.346;12.372;2023-05-07T13:51:57;4.63;;;3.83;;
36371;SDS011;22398;51.346;12.372;2023-05-07T13:57:02;4.70;;;3.13;;
36371;SDS011;22398;51.346;12.372;2023-05-07T14:07:10;3.70;;;2.67;;
36371;SDS011;22398;51.346;12.372;2023-05-07T14:12:15;4.05;;;2.47;;
36371;SDS011;22398;51.346;12.372;2023-05-07T14:22:25;4.10;;;2.97;;
36371;SDS011;22398;51.346;12.372;2023-05-07T14:27:30;4.43;;;2.75;;
36371;SDS011;22398;51.346;12.372;2023-05-07T14:32:33;3.38;;;2.40;;
36371;SDS011;22398;51.346;12.372;2023-05-07T14:37:37;4.57;;;2.50;;
36371;SDS011;22398;51.346;12.372;2023-05-07T14:42:42;2.83;;;2.00;;
36371;SDS011;22398;51.346;12.372;2023-05-07T14:47:45;3.20;;;2.15;;
36371;SDS011;22398;51.346;12.372;2023-05-07T14:52:49;5.75;;;2.83;;
36371;SDS011;22398;51.346;12.372;2023-05-07T14:57:55;5.43;;;2.53;;
36371;SDS011;22398;51.346;12.372;2023-05-07T15:03:02;3.45;;;2.47;;
36371;SDS011;22398;51.346;12.372;2023-05-07T15:08:09;3.95;;;2.33;;
36371;SDS011;22398;51.346;12.372;2023-05-07T15:13:14;3.50;;;2.47;;
36371;SDS011;22398;51.346;12.372;2023-05-07T15:23:23;3.07;;;2.07;;
36371;SDS011;22398;51.346;12.372;2023-05-07T15:28:29;4.45;;;2.22;;
36371;SDS011;22398;51.346;12.372;2023-05-07T15:33:33;3.25;;;2.53;;
36371;SDS011;22398;51.346;12.372;2023-05-07T15:38:38;5.40;;;2.63;;
36371;SDS011;22398;51.346;12.372;2023-05-07T15:43:45;3.95;;;2.97;;
36371;SDS011;22398;51.346;12.372;2023-05-07T15:48:51;4.15;;;2.83;;
36371;SDS011;22398;51.346;12.372;2023-05-07T15:53:55;3.75;;;2.67;;
36371;SDS011;22398;51.346;12.372;2023-05-07T15:59:00;4.32;;;2.85;;
36371;SDS011;22398;51.346;12.372;2023-05-07T16:04:07;4.63;;;2.90;;
36371;SDS011;22398;51.346;12.372;2023-05-07T16:09:10;5.13;;;3.35;;
36371;SDS011;22398;51.346;12.372;2023-05-07T16:14:15;6.35;;;3.53;;
36371;SDS011;22398;51.346;12.372;2023-05-07T16:19:19;8.32;;;3.50;;
36371;SDS011;22398;51.346;12.372;2023-05-07T16:24:24;6.28;;;3.50;;
36371;SDS011;22398;51.346;12.372;2023-05-07T16:29:29;5.38;;;3.08;;
36371;SDS011;22398;51.346;12.372;2023-05-07T16:34:32;5.47;;;3.60;;
36371;SDS011;22398;51.346;12.372;2023-05-07T16:39:36;6.63;;;3.60;;
36371;SDS011;22398;51.346;12.372;2023-05-07T16:44:41;4.50;;;3.40;;
36371;SDS011;22398;51.346;12.372;2023-05-07T16:49:45;7.40;;;3.50;;
36371;SDS011;22398;51.346;12.372;2023-05-07T16:54:49;4.30;;;3.20;;
36371;SDS011;22398;51.346;12.372;2023-05-07T16:59:55;7.07;;;4.43;;
36371;SDS011;22398;51.346;12.372;2023-05-07T17:05:01;5.40;;;3.72;;
36371;SDS011;22398;51.346;12.372;2023-05-07T17:10:07;6.60;;;3.45;;
36371;SDS011;22398;51.346;12.372;2023-05-07T17:15:12;4.57;;;3.23;;
36371;SDS011;22398;51.346;12.372;2023-05-07T17:20:16;5.72;;;3.40;;
36371;SDS011;22398;51.346;12.372;2023-05-07T17:25:20;3.78;;;2.85;;
36371;SDS011;22398;51.346;12.372;2023-05-07T17:30:26;3.72;;;3.00;;
36371;SDS011;22398;51.346;12.372;2023-05-07T17:35:30;7.20;;;3.55;;
36371;SDS011;22398;51.346;12.372;2023-05-07T17:40:33;5.03;;;3.38;;
36371;SDS011;22398;51.346;12.372;2023-05-07T17:45:38;7.05;;;3.80;;
36371;SDS011;22398;51.346;12.372;2023-05-07T17:55:46;5.00;;;3.70;;
36371;SDS011;22398;51.346;12.372;2023-05-07T18:00:51;6.63;;;3.90;;
36371;SDS011;22398;51.346;12.372;2023-05-07T18:05:55;13.05;;;4.72;;
36371;SDS011;22398;51.346;12.372;2023-05-07T18:10:59;7.75;;;3.85;;
36371;SDS011;22398;51.346;12.372;2023-05-07T18:16:04;6.80;;;4.72;;
36371;SDS011;22398;51.346;12.372;2023-05-07T18:21:08;4.40;;;3.38;;
36371;SDS011;22398;51.346;12.372;2023-05-07T18:26:16;6.45;;;4.20;;
36371;SDS011;22398;51.346;12.372;2023-05-07T18:31:21;7.32;;;4.63;;
36371;SDS011;22398;51.346;12.372;2023-05-07T18:36:25;7.05;;;4.15;;
36371;SDS011;22398;51.346;12.372;2023-05-07T18:41:28;7.85;;;4.25;;
36371;SDS011;22398;51.346;12.372;2023-05-07T18:46:33;6.47;;;4.72;;
36371;SDS011;22398;51.346;12.372;2023-05-07T18:51:37;7.40;;;4.05;;
36371;SDS011;22398;51.346;12.372;2023-05-07T18:56:41;7.50;;;4.15;;
36371;SDS011;22398;51.346;12.372;2023-05-07T19:01:46;8.63;;;4.10;;
36371;SDS011;22398;51.346;12.372;2023-05-07T19:06:49;8.20;;;4.63;;
36371;SDS011;22398;51.346;12.372;2023-05-07T19:11:53;7.60;;;4.95;;
36371;SDS011;22398;51.346;12.372;2023-05-07T19:16:59;7.60;;;4.57;;
36371;SDS011;22398;51.346;12.372;2023-05-07T19:22:02;7.73;;;4.87;;
36371;SDS011;22398;51.346;12.372;2023-05-07T19:27:06;6.40;;;4.45;;
36371;SDS011;22398;51.346;12.372;2023-05-07T19:32:11;7.00;;;4.07;;
36371;SDS011;22398;51.346;12.372;2023-05-07T19:37:15;6.32;;;4.90;;
36371;SDS011;22398;51.346;12.372;2023-05-07T19:42:18;8.00;;;4.40;;
36371;SDS011;22398;51.346;12.372;2023-05-07T19:47:23;7.32;;;4.70;;
36371;SDS011;22398;51.346;12.372;2023-05-07T19:52:27;7.45;;;4.88;;
36371;SDS011;22398;51.346;12.372;2023-05-07T19:57:31;10.13;;;4.60;;
36371;SDS011;22398;51.346;12.372;2023-05-07T20:02:37;7.13;;;4.63;;
36371;SDS011;22398;51.346;12.372;2023-05-07T20:07:40;6.03;;;4.53;;
36371;SDS011;22398;51.346;12.372;2023-05-07T20:12:47;6.03;;;4.32;;
36371;SDS011;22398;51.346;12.372;2023-05-07T20:17:52;8.75;;;5.10;;
36371;SDS011;22398;51.346;12.372;2023-05-07T20:22:56;11.07;;;5.15;;
36371;SDS011;22398;51.346;12.372;2023-05-07T20:27:59;7.75;;;5.15;;
36371;SDS011;22398;51.346;12.372;2023-05-07T20:33:05;6.07;;;4.35;;
36371;SDS011;22398;51.346;12.372;2023-05-07T20:38:09;8.85;;;4.70;;
36371;SDS011;22398;51.346;12.372;2023-05-07T20:43:12;8.75;;;4.93;;
36371;SDS011;22398;51.346;12.372;2023-05-07T20:48:17;8.45;;;4.88;;
36371;SDS011;22398;51.346;12.372;2023-05-07T20:53:21;8.05;;;4.82;;
36371;SDS011;22398;51.346;12.372;2023-05-07T20:58:26;7.00;;;4.72;;
36371;SDS011;22398;51.346;12.372;2023-05-07T21:03:31;8.07;;;4.65;;
36371;SDS011;22398;51.346;12.372;2023-05-07T21:08:35;9.10;;;4.80;;
36371;SDS011;22398;51.346;12.372;2023-05-07T21:13:39;7.15;;;4.82;;
36371;SDS011;22398;51.346;12.372;2023-05-07T21:18:44;6.55;;;4.93;;
36371;SDS011;22398;51.346;12.372;2023-05-07T21:23:47;10.02;;;5.78;;
36371;SDS011;22398;51.346;12.372;2023-05-07T21:28:51;10.43;;;5.30;;
36371;SDS011;22398;51.346;12.372;2023-05-07T21:33:56;6.85;;;4.97;;
36371;SDS011;22398;51.346;12.372;2023-05-07T21:38:59;8.00;;;5.07;;
36371;SDS011;22398;51.346;12.372;2023-05-07T21:44:03;9.88;;;5.85;;
36371;SDS011;22398;51.346;12.372;2023-05-07T21:49:08;9.88;;;5.55;;
36371;SDS011;22398;51.346;12.372;2023-05-07T21:54:13;8.60;;;5.72;;
36371;SDS011;22398;51.346;12.372;2023-05-07T21:59:17;7.27;;;4.77;;
36371;SDS011;22398;51.346;12.372;2023-05-07T22:04:22;9.32;;;5.10;;
36371;SDS011;22398;51.346;12.372;2023-05-07T22:09:25;12.70;;;5.73;;
36371;SDS011;22398;51.346;12.372;2023-05-07T22:14:29;7.63;;;5.18;;
36371;SDS011;22398;51.346;12.372;2023-05-07T22:19:33;9.65;;;5.95;;
36371;SDS011;22398;51.346;12.372;2023-05-07T22:24:36;9.13;;;5.82;;
36371;SDS011;22398;51.346;12.372;2023-05-07T22:29:40;10.73;;;5.63;;
36371;SDS011;22398;51.346;12.372;2023-05-07T22:34:44;10.02;;;5.60;;
36371;SDS011;22398;51.346;12.372;2023-05-07T22:39:47;8.18;;;5.60;;
36371;SDS011;22398;51.346;12.372;2023-05-07T22:44:51;9.82;;;6.03;;
36371;SDS011;22398;51.346;12.372;2023-05-07T22:49:55;8.90;;;5.30;;
36371;SDS011;22398;51.346;12.372;2023-05-07T22:54:59;8.60;;;5.57;;
36371;SDS011;22398;51.346;12.372;2023-05-07T23:00:03;7.97;;;4.88;;
36371;SDS011;22398;51.346;12.372;2023-05-07T23:05:09;11.05;;;5.32;;
36371;SDS011;22398;51.346;12.372;2023-05-07T23:10:13;9.73;;;4.75;;
36371;SDS011;22398;51.346;12.372;2023-05-07T23:15:17;8.90;;;5.13;;
36371;SDS011;22398;51.346;12.372;2023-05-07T23:20:23;9.10;;;5.03;;
36371;SDS011;22398;51.346;12.372;2023-05-07T23:25:26;6.55;;;4.88;;
36371;SDS011;22398;51.346;12.372;2023-05-07T23:30:30;8.07;;;5.15;;
36371;SDS011;22398;51.346;12.372;2023-05-07T23:35:36;11.77;;;5.45;;
36371;SDS011;22398;51.346;12.372;2023-05-07T23:40:39;8.60;;;4.70;;
36371;SDS011;22398;51.346;12.372;2023-05-07T23:45:43;8.02;;;5.18;;
36371;SDS011;22398;51.346;12.372;2023-05-07T23:50:47;9.45;;;4.78;;
36371;SDS011;22398;51.346;12.372;2023-05-07T23:55:50;8.60;;;5.03;;
